Michalis Makris

Baş Scout - Agia Napa
4 Ara 2028
Pazartesi
İşlem

Kişilik

Uyum (17) Hırs (8) Tartışma (18) Sadakat (11) Baskı (1) Profesyonellik (13) Sportmenlik (1) Mizaç (19)

Profil

Antrenörlük Tarzı Demokratik
Lisans Kıtasal A
Kararlılık 9
İnsan Yönetimi 4
Motivasyon 9
Disiplin 4
İş Memnuniyeti
84%
Yorgunluk
0%
Görev Baş Scout
Maaş 15.5K h/h
Sözleşme 14.03.2030

Performans

Davranış İyi
Antrenman Etkinliği
29%
Oyuncu Gelişimi
40%
Sakatlık Önleme
10%
Taktik Uygulama
20%

Son Olaylar

Oyuncu izleme toplantısına katıldı şimdi
Bir transfer hedefi önerdi şimdi
Bir transfer hedefi önerdi şimdi
Bir transfer hedefi önerdi şimdi
Bir transfer hedefi önerdi şimdi
Bir oyuncu değerlendirdi şimdi
Bir oyuncu değerlendirdi şimdi
Bir oyuncu değerlendirdi şimdi

Şu Anda İzliyor

129
Oyuncu Kulüp Durum Yetenek Güven İzlendi Son Gözlem Son Oy
Suraju Lawal Remo Stars Aktif 94 / 88 40% 2 03.12.2028 -
Mauro Valiente Estudiantes Aktif 129 / 106 40% 2 03.12.2028 -
Kabiru Abdullahi Barau Aktif 81 / 97 40% 1 03.12.2028 -
Kingsley Maduforo Enyimba Aktif 86 / 70 40% 3 02.12.2028 -
Emmanuel Jesam Rangers International Aktif 81 / 105 40% 4 02.12.2028 -
Augusto Berrondo Tristán Suárez Aktif 106 / 90 40% 2 02.12.2028 -
Bruno Miño Almirante Brown Aktif 108 / 110 40% 1 30.11.2028 -
Chukwudi Okoro Warri Wolves Aktif 95 / 92 40% 1 30.11.2028 -
Juan Mendoza Güemes Aktif 104 / 96 40% 1 30.11.2028 -
Daniel Barrea Godoy Cruz Aktif 130 / 130 40% 3 29.11.2028 -
Auwalu Ali Malam Kano Pillars Aktif 92 / 73 40% 2 29.11.2028 -
Chisom Orji Warri Wolves Aktif 97 / 80 40% 2 29.11.2028 -
Ismail Sarki Niger Tornadoes Aktif 103 / 79 40% 2 28.11.2028 -
Julián Brea Cobresal Aktif 110 / 103 40% 1 28.11.2028 -
Bruno Scorza La Luz Aktif 98 / 91 40% 1 26.11.2028 -
Ganiyu Wasiu Shooting Stars Aktif 92 / 64 40% 1 26.11.2028 -
Camilo Machado Madryn Aktif 117 / 110 40% 2 23.11.2028 -
Enzo González Defensores Aktif 98 / 119 40% 2 21.11.2028 -
Alao Dabani Nasarawa United Aktif 90 / 83 40% 2 21.11.2028 -
Agustín Gallo Tristán Suárez Aktif 112 / 119 40% 1 21.11.2028 -
Tomás Jerez San Miguel Aktif 100 / 89 40% 2 20.11.2028 -
Adeshina Gata Kwara United Aktif 98 / 103 40% 1 20.11.2028 -
Luis Sandoval Independiente Medellin Aktif 129 / 124 40% 1 19.11.2028 -
Samson Olasupo Remo Stars Aktif 104 / 82 40% 1 19.11.2028 -
Okardi Inikurogha Bayelsa United Aktif 87 / 83 40% 1 17.11.2028 -
Gabriel Arango Zulia Aktif 108 / 82 40% 1 17.11.2028 -
Sebastián Cocimano Nueva Chicago Aktif 104 / 111 40% 1 16.11.2028 -
Augustine Nwaorisa Enyimba Aktif 86 / 88 40% 1 16.11.2028 -
Mauro Molina Estudiantes Aktif 105 / 94 40% 1 16.11.2028 -
Juan David Rueda Alianza Petrolera Aktif 118 / 124 40% 1 15.11.2028 -
Facundo Krüger Temperley Aktif 117 / 126 40% 1 12.11.2028 -
Marco Miori Alvarado Aktif 121 / 93 40% 1 12.11.2028 -
Luca Franco Arsenal Aktif 114 / 94 40% 1 12.11.2028 -
Joseph Arumala Ikorodu City Aktif 97 / 73 40% 1 11.11.2028 -
Sebastián Marfort Racing Aktif 102 / 103 40% 1 06.11.2028 -
Abubakar Garba Nasarawa United Aktif 96 / 101 40% 1 06.11.2028 -
Kostakis Loizou Omonoia Aktif 81 / 76 65% 1 28.08.2028 Onayla
Charalambos Konstantinou APOEL Aktif 77 / 107 65% 1 17.07.2028 Onayla
Ioannis Artymatas Ethnikos Achnas Görüşülüyor 81 / 87 65% 1 26.06.2028 -
Pieros Charalambous Paralimni Aktif 66 / 67 65% 1 01.06.2028 Onayla
Nikolas Perdios Ethnikos Achnas Aktif 90 / 83 58% 1 19.07.2027 -
Banou Cissé Real Bamako Aktif 94 / 116 40% 4 05.07.2027 -
Francesco Petito Dolomiti Bellunesi Aktif 102 / 89 40% 1 05.07.2027 -
Stanislav Biblyk Chaika Aktif 98 / 111 40% 6 14.06.2027 -
Mattia Iori Lumezzane Aktif 99 / 92 40% 1 14.06.2027 -
Enzo Cabrera AE Kition Aktif 120 / 101 40% 4 30.05.2027 -
Youssef Dalouzi Renaissance Aktif 102 / 102 40% 2 29.05.2027 -
Vladimir Khubulov Dinamo Makhachkala Aktif 105 / 111 40% 4 28.05.2027 -
Lamine Diakité Djoliba Aktif 100 / 94 40% 2 28.05.2027 -
César Magallan Estudiantes de Merida Aktif 108 / 123 40% 1 26.05.2027 -
Ekain Orobengoa Real Sociedad Aktif 116 / 119 40% 2 25.05.2027 -
Christos Giousis Nea Salamis Aktif 111 / 113 40% 4 23.05.2027 -
Nicolás Andereggen Ethnikos Achnas Aktif 113 / 125 40% 3 22.05.2027 -
Moussakoye Diallo Stade Malien Aktif 96 / 88 40% 3 16.05.2027 -
Alejandro Rincon Llaneros Aktif 88 / 119 40% 1 16.05.2027 -
Martin Sekulić Ural Aktif 126 / 114 40% 6 15.05.2027 -
Job Ochieng Real Sociedad Aktif 106 / 89 40% 2 12.05.2027 -
Ruslan Apekov Torpedo Moscow Aktif 106 / 107 40% 1 11.05.2027 -
Anton Betyuzhnov Dinamo Vologda Aktif 67 / 83 40% 1 03.05.2027 -
Bashar Musa US Forces Armees Aktif 84 / 83 40% 5 02.05.2027 -
Darío Poveda Nea Salamis Aktif 99 / 100 40% 3 01.05.2027 -
Alexandr Saplinov Volga Aktif 90 / 86 40% 2 01.05.2027 -
Dramane Traoré AS Korofina Aktif 108 / 113 40% 2 30.04.2027 -
Kamran Aliev SKA Khabarovsk Aktif 103 / 98 40% 1 27.04.2027 -
Timur Melekestsev Arsenal Tula Aktif 90 / 80 40% 2 25.04.2027 -
Juan Cejas Ethnikos Achnas Aktif 104 / 123 40% 4 22.04.2027 -
Giuseppe D'Agostino Giugliano Aktif 88 / 94 40% 1 22.04.2027 -
Damir Céter Hamrun Spartans Aktif 99 / 104 40% 1 15.04.2027 -
Ilja Safronov Rotor Aktif 112 / 121 40% 4 14.04.2027 -
Zoumana Simpara Djoliba Aktif 104 / 111 40% 2 11.04.2027 -
Migran Ageyan Ufa Aktif 93 / 115 40% 2 09.04.2027 -
Maxim Kutovoy Salyut Aktif 84 / 98 40% 2 04.04.2027 -
Tobías Dieni Ryazan Aktif 65 / 62 40% 1 04.04.2027 -
Jacobo Alcalde SKA Khabarovsk Aktif 86 / 106 40% 1 26.03.2027 -
Denis Rubanov Dinamo Stavropol Aktif 74 / 70 40% 3 25.03.2027 -
Vladislav Yakovlev Volga Aktif 98 / 89 40% 1 25.03.2027 -
Rashid Magomedov Neftekhimik Aktif 93 / 101 40% 1 24.03.2027 -
Paolo Yrizar Chernomorets Aktif 106 / 87 40% 3 22.03.2027 -
Akintunde Azeez US Bougouni Aktif 79 / 83 40% 1 20.03.2027 -
Surkhaikhan Abdullaev KAMAZ Aktif 93 / 111 40% 1 18.03.2027 -
Evgeny Voronin Volga Aktif 91 / 97 40% 1 16.03.2027 -
Labros Ioannou Ermis Aktif 89 / 86 40% 2 09.03.2027 -
Patrick Schmidt Tarxien Rainbows Aktif 112 / 96 40% 3 07.03.2027 -
Yegor Ponomarev Tver Aktif 75 / 85 40% 1 05.03.2027 -
Miloš Jovičić Zabbar St. Patrick Aktif 79 / 94 40% 2 03.03.2027 -
Peter Dakka AS Bakaridjan Aktif 84 / 98 40% 2 03.03.2027 -
Aleksej Golijanin Sokol Aktif 92 / 88 40% 1 01.03.2027 -
Bruno Gomes Valletta Aktif 89 / 106 40% 1 01.02.2027 -
Jajá Pafos Aktif 103 / 97 40% 2 18.01.2027 -
Alexandr Olenev Nart Aktif 89 / 106 40% 3 24.12.2026 -
Rody Junior Effaghe Aris Aktif 109 / 110 40% 4 20.12.2026 -
Davit Volkovi Zira Aktif 123 / 129 40% 2 19.12.2026 -
Javier Siverio Ethnikos Achnas Aktif 86 / 101 40% 1 18.12.2026 -
Daniil Kondrakov KDV Tomsk Aktif 102 / 94 40% 1 18.12.2026 -
Ildi Gruda Egnatia Rrogozhinë Aktif 114 / 125 40% 2 16.12.2026 -
Dmitry Kuptsov Spartak Tambov Aktif 76 / 95 40% 1 15.12.2026 -
Franklin Sasere Birkirkara Aktif 82 / 75 40% 1 05.12.2026 -
Hakeeb Adelakun Doncaster Rovers Aktif 117 / 95 40% 2 30.11.2026 -
Will Swan Bradford City Aktif 86 / 98 40% 3 29.11.2026 -
Víctor Guzmán Sporting CP Aktif 100 / 90 40% 1 27.11.2026 -
Brandon Hanlan Doncaster Rovers Aktif 101 / 88 40% 1 26.11.2026 -
Tenton Yenne Baltika Aktif 100 / 106 40% 1 22.11.2026 -
Daniil Agureev Amkar Aktif 99 / 65 40% 1 18.11.2026 -
Renat Garayev AZAL Aktif 106 / 94 40% 1 17.11.2026 -
Sergio Riffo Kolkheti Aktif 87 / 100 40% 1 17.11.2026 -
Daniel Udoh Salford City Aktif 104 / 114 40% 1 09.11.2026 -
Isaac Matondo Koper Aktif 110 / 96 40% 2 08.11.2026 -
Nikita Simdyankin KDV Tomsk Aktif 89 / 77 40% 1 08.11.2026 -
David Karaev KAMAZ Aktif 96 / 118 40% 1 07.11.2026 -
Robert Murić Floriana Aktif 99 / 86 40% 2 06.11.2026 -
Shota Shekiladze Dila Aktif 101 / 126 40% 1 04.11.2026 -
Mateusz Musiałowski Anorthosis Aktif 89 / 92 40% 1 03.11.2026 -
Paul Glatzel Swindon Town Aktif 110 / 99 40% 1 31.10.2026 -
Elías Peralta Lokomotivi Aktif 102 / 87 40% 1 31.10.2026 -
Magomed Nasibov Pobeda Aktif 96 / 100 40% 1 25.10.2026 -
Denzel Jubitana Neftchi Aktif 109 / 122 40% 1 23.10.2026 -
Sam Nombe Milton Keynes Dons Aktif 98 / 93 40% 1 21.10.2026 -
Alexandr Yushin Torpedo Moscow Aktif 97 / 121 40% 1 20.10.2026 -
Marcus Browne AFC Wimbledon Aktif 94 / 99 40% 1 18.10.2026 -
Manprit Sarkaria Austria Wien Aktif 113 / 92 40% 1 18.10.2026 -
Kekuta Manneh Samtredia Aktif 97 / 88 40% 1 15.10.2026 -
Rafael Santos Borré River Plate Aktif 135 / 116 40% 1 05.10.2026 -
Macaulay Langstaff Millwall Aktif 123 / 130 40% 1 07.09.2026 -
Gonzalo Errecalde Gimnasia La Plata Aktif 118 / 138 40% 1 24.08.2026 -
Alberto Benítez Villalba Torpedo Kutaisi Aktif 91 / 98 40% 1 11.08.2026 -
Felipe Tempone Independiente Aktif 66 / 97 40% 1 11.08.2026 -
Mihail Angelos Marinescu Ethnikos Achnas Aktif 68 / 63 58% 1 10.08.2026 Onayla
Rodrigo Bogarín Barracas Central Aktif 122 / 108 40% 1 01.08.2026 -
Gustavo Del Prete San Lorenzo Aktif 122 / 132 40% 1 01.08.2026 -